sensor_id;sensor_type;location;lat;lon;timestamp;P1;durP1;ratioP1;P2;durP2;ratioP2
3379;SDS011;1703;51.964;7.642;2024-01-10T00:01:00;11.93;;;3.90;;
3379;SDS011;1703;51.964;7.642;2024-01-10T00:03:27;6.63;;;4.20;;
3379;SDS011;1703;51.964;7.642;2024-01-10T00:05:56;7.50;;;3.63;;
3379;SDS011;1703;51.964;7.642;2024-01-10T00:08:22;9.73;;;3.90;;
3379;SDS011;1703;51.964;7.642;2024-01-10T00:10:49;7.63;;;3.87;;
3379;SDS011;1703;51.964;7.642;2024-01-10T00:13:19;8.80;;;4.53;;
3379;SDS011;1703;51.964;7.642;2024-01-10T00:15:46;10.17;;;5.33;;
3379;SDS011;1703;51.964;7.642;2024-01-10T00:18:12;10.60;;;4.73;;
3379;SDS011;1703;51.964;7.642;2024-01-10T00:20:39;9.50;;;4.20;;
3379;SDS011;1703;51.964;7.642;2024-01-10T00:23:07;10.20;;;4.57;;
3379;SDS011;1703;51.964;7.642;2024-01-10T00:25:34;8.23;;;4.20;;
3379;SDS011;1703;51.964;7.642;2024-01-10T00:28:01;7.60;;;3.83;;
3379;SDS011;1703;51.964;7.642;2024-01-10T00:30:28;8.20;;;4.57;;
3379;SDS011;1703;51.964;7.642;2024-01-10T00:32:55;14.20;;;5.00;;
3379;SDS011;1703;51.964;7.642;2024-01-10T00:35:21;6.07;;;3.73;;
3379;SDS011;1703;51.964;7.642;2024-01-10T00:37:48;12.37;;;5.27;;
3379;SDS011;1703;51.964;7.642;2024-01-10T00:40:16;5.73;;;3.17;;
3379;SDS011;1703;51.964;7.642;2024-01-10T00:42:43;6.40;;;4.43;;
3379;SDS011;1703;51.964;7.642;2024-01-10T00:45:10;6.87;;;4.40;;
3379;SDS011;1703;51.964;7.642;2024-01-10T00:47:37;8.53;;;3.90;;
3379;SDS011;1703;51.964;7.642;2024-01-10T00:50:04;8.57;;;4.70;;
3379;SDS011;1703;51.964;7.642;2024-01-10T00:52:31;11.97;;;3.73;;
3379;SDS011;1703;51.964;7.642;2024-01-10T00:54:58;8.57;;;4.30;;
3379;SDS011;1703;51.964;7.642;2024-01-10T00:57:26;7.30;;;4.00;;
3379;SDS011;1703;51.964;7.642;2024-01-10T00:59:53;9.80;;;4.27;;
3379;SDS011;1703;51.964;7.642;2024-01-10T01:02:20;4.27;;;3.33;;
3379;SDS011;1703;51.964;7.642;2024-01-10T01:04:46;6.50;;;4.30;;
3379;SDS011;1703;51.964;7.642;2024-01-10T01:07:13;7.33;;;3.50;;
3379;SDS011;1703;51.964;7.642;2024-01-10T01:09:40;8.10;;;4.50;;
3379;SDS011;1703;51.964;7.642;2024-01-10T01:12:07;7.97;;;4.13;;
3379;SDS011;1703;51.964;7.642;2024-01-10T01:14:35;12.63;;;4.80;;
3379;SDS011;1703;51.964;7.642;2024-01-10T01:17:02;6.70;;;3.40;;
3379;SDS011;1703;51.964;7.642;2024-01-10T01:19:29;8.10;;;4.20;;
3379;SDS011;1703;51.964;7.642;2024-01-10T01:21:56;14.23;;;4.10;;
3379;SDS011;1703;51.964;7.642;2024-01-10T01:24:22;7.30;;;4.53;;
3379;SDS011;1703;51.964;7.642;2024-01-10T01:26:49;5.57;;;3.60;;
3379;SDS011;1703;51.964;7.642;2024-01-10T01:29:16;11.50;;;5.07;;
3379;SDS011;1703;51.964;7.642;2024-01-10T01:31:44;8.60;;;4.63;;
3379;SDS011;1703;51.964;7.642;2024-01-10T01:34:11;11.70;;;5.13;;
3379;SDS011;1703;51.964;7.642;2024-01-10T01:36:38;14.43;;;5.70;;
3379;SDS011;1703;51.964;7.642;2024-01-10T01:39:05;6.60;;;4.00;;
3379;SDS011;1703;51.964;7.642;2024-01-10T01:41:32;6.00;;;3.37;;
3379;SDS011;1703;51.964;7.642;2024-01-10T01:43:58;5.70;;;4.40;;
3379;SDS011;1703;51.964;7.642;2024-01-10T01:46:25;10.63;;;4.83;;
3379;SDS011;1703;51.964;7.642;2024-01-10T01:48:54;8.13;;;4.00;;
3379;SDS011;1703;51.964;7.642;2024-01-10T01:51:21;6.07;;;4.53;;
3379;SDS011;1703;51.964;7.642;2024-01-10T01:53:48;7.67;;;4.40;;
3379;SDS011;1703;51.964;7.642;2024-01-10T01:56:16;10.30;;;5.33;;
3379;SDS011;1703;51.964;7.642;2024-01-10T01:58:43;6.80;;;4.30;;
3379;SDS011;1703;51.964;7.642;2024-01-10T02:01:12;11.90;;;4.83;;
3379;SDS011;1703;51.964;7.642;2024-01-10T02:03:39;8.90;;;5.60;;
3379;SDS011;1703;51.964;7.642;2024-01-10T02:06:07;9.67;;;3.93;;
3379;SDS011;1703;51.964;7.642;2024-01-10T02:08:34;7.63;;;3.70;;
3379;SDS011;1703;51.964;7.642;2024-01-10T02:11:02;13.20;;;5.50;;
3379;SDS011;1703;51.964;7.642;2024-01-10T02:13:29;8.90;;;4.13;;
3379;SDS011;1703;51.964;7.642;2024-01-10T02:15:57;11.17;;;4.67;;
3379;SDS011;1703;51.964;7.642;2024-01-10T02:18:25;11.13;;;3.97;;
3379;SDS011;1703;51.964;7.642;2024-01-10T02:20:52;14.90;;;4.40;;
3379;SDS011;1703;51.964;7.642;2024-01-10T02:23:20;7.53;;;4.40;;
3379;SDS011;1703;51.964;7.642;2024-01-10T02:25:48;5.20;;;3.93;;
3379;SDS011;1703;51.964;7.642;2024-01-10T02:28:15;6.57;;;4.57;;
3379;SDS011;1703;51.964;7.642;2024-01-10T02:30:42;12.93;;;5.57;;
3379;SDS011;1703;51.964;7.642;2024-01-10T02:33:08;6.77;;;4.30;;
3379;SDS011;1703;51.964;7.642;2024-01-10T02:35:35;10.90;;;4.83;;
3379;SDS011;1703;51.964;7.642;2024-01-10T02:38:02;7.20;;;4.13;;
3379;SDS011;1703;51.964;7.642;2024-01-10T02:40:30;10.17;;;4.70;;
3379;SDS011;1703;51.964;7.642;2024-01-10T02:42:58;10.30;;;5.60;;
3379;SDS011;1703;51.964;7.642;2024-01-10T02:45:25;7.70;;;3.80;;
3379;SDS011;1703;51.964;7.642;2024-01-10T02:47:51;7.00;;;4.57;;
3379;SDS011;1703;51.964;7.642;2024-01-10T02:50:18;12.33;;;4.80;;
3379;SDS011;1703;51.964;7.642;2024-01-10T02:52:45;9.40;;;5.23;;
3379;SDS011;1703;51.964;7.642;2024-01-10T02:55:12;12.03;;;5.33;;
3379;SDS011;1703;51.964;7.642;2024-01-10T02:57:39;7.63;;;4.23;;
3379;SDS011;1703;51.964;7.642;2024-01-10T03:00:08;13.13;;;5.60;;
3379;SDS011;1703;51.964;7.642;2024-01-10T03:02:36;7.20;;;4.13;;
3379;SDS011;1703;51.964;7.642;2024-01-10T03:05:03;8.77;;;3.90;;
3379;SDS011;1703;51.964;7.642;2024-01-10T03:07:30;6.03;;;4.73;;
3379;SDS011;1703;51.964;7.642;2024-01-10T03:09:57;10.73;;;5.80;;
3379;SDS011;1703;51.964;7.642;2024-01-10T03:12:23;8.80;;;4.40;;
3379;SDS011;1703;51.964;7.642;2024-01-10T03:14:50;10.40;;;5.10;;
3379;SDS011;1703;51.964;7.642;2024-01-10T03:17:18;7.47;;;4.77;;
3379;SDS011;1703;51.964;7.642;2024-01-10T03:19:45;8.50;;;4.53;;
3379;SDS011;1703;51.964;7.642;2024-01-10T03:22:13;8.20;;;4.77;;
3379;SDS011;1703;51.964;7.642;2024-01-10T03:24:40;6.00;;;3.90;;
3379;SDS011;1703;51.964;7.642;2024-01-10T03:27:06;12.77;;;5.57;;
3379;SDS011;1703;51.964;7.642;2024-01-10T03:29:33;11.07;;;5.17;;
3379;SDS011;1703;51.964;7.642;2024-01-10T03:32:00;7.90;;;4.73;;
3379;SDS011;1703;51.964;7.642;2024-01-10T03:34:28;9.23;;;5.30;;
3379;SDS011;1703;51.964;7.642;2024-01-10T03:36:55;9.10;;;5.93;;
3379;SDS011;1703;51.964;7.642;2024-01-10T03:39:22;8.67;;;5.50;;
3379;SDS011;1703;51.964;7.642;2024-01-10T03:41:49;11.47;;;4.50;;
3379;SDS011;1703;51.964;7.642;2024-01-10T03:44:16;9.90;;;4.87;;
3379;SDS011;1703;51.964;7.642;2024-01-10T03:46:42;6.90;;;4.80;;
3379;SDS011;1703;51.964;7.642;2024-01-10T03:49:09;8.20;;;4.83;;
3379;SDS011;1703;51.964;7.642;2024-01-10T03:51:38;6.43;;;4.23;;
3379;SDS011;1703;51.964;7.642;2024-01-10T03:54:05;7.27;;;4.20;;
3379;SDS011;1703;51.964;7.642;2024-01-10T03:56:32;12.37;;;6.33;;
3379;SDS011;1703;51.964;7.642;2024-01-10T03:58:59;13.03;;;5.80;;
3379;SDS011;1703;51.964;7.642;2024-01-10T04:01:26;10.03;;;5.93;;
3379;SDS011;1703;51.964;7.642;2024-01-10T04:03:53;10.30;;;5.43;;
3379;SDS011;1703;51.964;7.642;2024-01-10T04:06:20;13.63;;;5.90;;
3379;SDS011;1703;51.964;7.642;2024-01-10T04:08:48;12.50;;;5.63;;
3379;SDS011;1703;51.964;7.642;2024-01-10T04:11:14;12.33;;;6.07;;
3379;SDS011;1703;51.964;7.642;2024-01-10T04:13:41;13.37;;;5.43;;
3379;SDS011;1703;51.964;7.642;2024-01-10T04:16:09;11.63;;;5.03;;
3379;SDS011;1703;51.964;7.642;2024-01-10T04:18:36;8.23;;;4.50;;
3379;SDS011;1703;51.964;7.642;2024-01-10T04:21:03;8.53;;;5.17;;
3379;SDS011;1703;51.964;7.642;2024-01-10T04:23:30;7.57;;;4.90;;
3379;SDS011;1703;51.964;7.642;2024-01-10T04:26:00;10.70;;;5.30;;
3379;SDS011;1703;51.964;7.642;2024-01-10T04:28:27;14.77;;;6.47;;
3379;SDS011;1703;51.964;7.642;2024-01-10T04:30:53;12.90;;;4.37;;
3379;SDS011;1703;51.964;7.642;2024-01-10T04:33:20;10.90;;;4.67;;
3379;SDS011;1703;51.964;7.642;2024-01-10T04:35:47;12.60;;;5.47;;
3379;SDS011;1703;51.964;7.642;2024-01-10T04:38:14;8.17;;;5.00;;
3379;SDS011;1703;51.964;7.642;2024-01-10T04:40:41;11.13;;;4.17;;
3379;SDS011;1703;51.964;7.642;2024-01-10T04:43:09;6.67;;;4.43;;
3379;SDS011;1703;51.964;7.642;2024-01-10T04:45:36;11.57;;;6.23;;
3379;SDS011;1703;51.964;7.642;2024-01-10T04:48:03;9.53;;;5.20;;
3379;SDS011;1703;51.964;7.642;2024-01-10T04:50:30;8.57;;;5.90;;
3379;SDS011;1703;51.964;7.642;2024-01-10T04:52:57;9.20;;;5.10;;
3379;SDS011;1703;51.964;7.642;2024-01-10T04:55:24;11.97;;;7.40;;
3379;SDS011;1703;51.964;7.642;2024-01-10T04:57:51;7.17;;;4.70;;
3379;SDS011;1703;51.964;7.642;2024-01-10T05:00:19;10.77;;;6.30;;
3379;SDS011;1703;51.964;7.642;2024-01-10T05:02:46;10.60;;;5.37;;
3379;SDS011;1703;51.964;7.642;2024-01-10T05:05:13;10.27;;;5.50;;
3379;SDS011;1703;51.964;7.642;2024-01-10T05:07:39;12.80;;;5.77;;
3379;SDS011;1703;51.964;7.642;2024-01-10T05:10:06;17.27;;;5.67;;
3379;SDS011;1703;51.964;7.642;2024-01-10T05:12:33;13.83;;;4.40;;
3379;SDS011;1703;51.964;7.642;2024-01-10T05:15:00;14.57;;;5.80;;
3379;SDS011;1703;51.964;7.642;2024-01-10T05:17:28;11.30;;;4.93;;
3379;SDS011;1703;51.964;7.642;2024-01-10T05:19:56;15.80;;;5.50;;
3379;SDS011;1703;51.964;7.642;2024-01-10T05:22:23;9.50;;;5.70;;
3379;SDS011;1703;51.964;7.642;2024-01-10T05:24:50;8.97;;;5.77;;
3379;SDS011;1703;51.964;7.642;2024-01-10T05:27:16;12.10;;;5.83;;
3379;SDS011;1703;51.964;7.642;2024-01-10T05:29:43;13.70;;;5.63;;
3379;SDS011;1703;51.964;7.642;2024-01-10T05:32:11;12.50;;;4.73;;
3379;SDS011;1703;51.964;7.642;2024-01-10T05:34:39;12.90;;;4.10;;
3379;SDS011;1703;51.964;7.642;2024-01-10T05:37:06;10.33;;;5.07;;
3379;SDS011;1703;51.964;7.642;2024-01-10T05:39:32;9.27;;;5.10;;
3379;SDS011;1703;51.964;7.642;2024-01-10T05:41:59;12.00;;;6.43;;
3379;SDS011;1703;51.964;7.642;2024-01-10T05:44:27;12.77;;;5.80;;
3379;SDS011;1703;51.964;7.642;2024-01-10T05:46:54;15.90;;;6.10;;
3379;SDS011;1703;51.964;7.642;2024-01-10T05:49:24;8.07;;;4.53;;
3379;SDS011;1703;51.964;7.642;2024-01-10T05:51:52;10.07;;;4.40;;
3379;SDS011;1703;51.964;7.642;2024-01-10T05:54:19;9.27;;;4.70;;
3379;SDS011;1703;51.964;7.642;2024-01-10T05:56:46;9.40;;;4.20;;
3379;SDS011;1703;51.964;7.642;2024-01-10T05:59:13;10.30;;;5.40;;
3379;SDS011;1703;51.964;7.642;2024-01-10T06:01:41;11.10;;;5.33;;
3379;SDS011;1703;51.964;7.642;2024-01-10T06:04:08;11.27;;;5.83;;
3379;SDS011;1703;51.964;7.642;2024-01-10T06:06:35;20.73;;;6.43;;
3379;SDS011;1703;51.964;7.642;2024-01-10T06:09:03;6.43;;;4.27;;
3379;SDS011;1703;51.964;7.642;2024-01-10T06:11:30;13.10;;;4.80;;
3379;SDS011;1703;51.964;7.642;2024-01-10T06:13:56;13.20;;;5.17;;
3379;SDS011;1703;51.964;7.642;2024-01-10T06:16:23;11.40;;;6.47;;
3379;SDS011;1703;51.964;7.642;2024-01-10T06:18:50;10.50;;;4.90;;
3379;SDS011;1703;51.964;7.642;2024-01-10T06:21:17;10.13;;;5.10;;
3379;SDS011;1703;51.964;7.642;2024-01-10T06:23:44;10.93;;;5.93;;
3379;SDS011;1703;51.964;7.642;2024-01-10T06:26:13;12.63;;;6.07;;
3379;SDS011;1703;51.964;7.642;2024-01-10T06:28:39;13.70;;;5.83;;
3379;SDS011;1703;51.964;7.642;2024-01-10T06:31:06;9.20;;;5.37;;
3379;SDS011;1703;51.964;7.642;2024-01-10T06:33:34;11.40;;;6.43;;
3379;SDS011;1703;51.964;7.642;2024-01-10T06:36:00;11.37;;;5.90;;
3379;SDS011;1703;51.964;7.642;2024-01-10T06:38:27;12.07;;;5.93;;
3379;SDS011;1703;51.964;7.642;2024-01-10T06:40:54;8.83;;;6.07;;
3379;SDS011;1703;51.964;7.642;2024-01-10T06:43:22;14.70;;;6.33;;
3379;SDS011;1703;51.964;7.642;2024-01-10T06:45:49;7.33;;;4.90;;
3379;SDS011;1703;51.964;7.642;2024-01-10T06:48:16;22.00;;;6.47;;
3379;SDS011;1703;51.964;7.642;2024-01-10T06:50:44;15.67;;;6.80;;
3379;SDS011;1703;51.964;7.642;2024-01-10T06:53:10;9.07;;;5.23;;
3379;SDS011;1703;51.964;7.642;2024-01-10T06:55:37;15.77;;;6.57;;
3379;SDS011;1703;51.964;7.642;2024-01-10T06:58:04;14.83;;;7.80;;
3379;SDS011;1703;51.964;7.642;2024-01-10T07:00:33;17.07;;;7.33;;
3379;SDS011;1703;51.964;7.642;2024-01-10T07:03:00;21.80;;;6.20;;
3379;SDS011;1703;51.964;7.642;2024-01-10T07:05:28;13.73;;;7.30;;
3379;SDS011;1703;51.964;7.642;2024-01-10T07:07:56;12.50;;;6.10;;
3379;SDS011;1703;51.964;7.642;2024-01-10T07:10:23;10.90;;;7.20;;
3379;SDS011;1703;51.964;7.642;2024-01-10T07:12:52;18.20;;;6.90;;
3379;SDS011;1703;51.964;7.642;2024-01-10T07:15:19;11.77;;;6.83;;
3379;SDS011;1703;51.964;7.642;2024-01-10T07:17:47;9.93;;;5.40;;
3379;SDS011;1703;51.964;7.642;2024-01-10T07:20:14;13.50;;;7.57;;
3379;SDS011;1703;51.964;7.642;2024-01-10T07:22:41;14.17;;;5.70;;
3379;SDS011;1703;51.964;7.642;2024-01-10T07:25:09;10.30;;;5.70;;
3379;SDS011;1703;51.964;7.642;2024-01-10T07:27:39;12.27;;;6.80;;
3379;SDS011;1703;51.964;7.642;2024-01-10T07:30:06;15.93;;;9.33;;
3379;SDS011;1703;51.964;7.642;2024-01-10T07:32:38;15.37;;;6.77;;
3379;SDS011;1703;51.964;7.642;2024-01-10T07:35:08;13.67;;;7.93;;
3379;SDS011;1703;51.964;7.642;2024-01-10T07:37:36;19.03;;;9.03;;
3379;SDS011;1703;51.964;7.642;2024-01-10T07:40:03;18.57;;;7.97;;
3379;SDS011;1703;51.964;7.642;2024-01-10T07:42:31;16.40;;;7.73;;
3379;SDS011;1703;51.964;7.642;2024-01-10T07:44:58;18.70;;;6.93;;
3379;SDS011;1703;51.964;7.642;2024-01-10T07:47:29;10.73;;;6.50;;
3379;SDS011;1703;51.964;7.642;2024-01-10T07:49:56;15.47;;;8.73;;
3379;SDS011;1703;51.964;7.642;2024-01-10T07:52:24;14.10;;;7.13;;
3379;SDS011;1703;51.964;7.642;2024-01-10T07:54:50;16.10;;;7.30;;
3379;SDS011;1703;51.964;7.642;2024-01-10T07:57:17;15.23;;;6.80;;
3379;SDS011;1703;51.964;7.642;2024-01-10T07:59:44;15.37;;;7.17;;
3379;SDS011;1703;51.964;7.642;2024-01-10T08:02:11;13.70;;;7.20;;
3379;SDS011;1703;51.964;7.642;2024-01-10T08:04:38;15.93;;;8.03;;
3379;SDS011;1703;51.964;7.642;2024-01-10T08:07:04;14.77;;;7.23;;
3379;SDS011;1703;51.964;7.642;2024-01-10T08:09:32;20.00;;;8.70;;
3379;SDS011;1703;51.964;7.642;2024-01-10T08:11:59;19.53;;;8.73;;
3379;SDS011;1703;51.964;7.642;2024-01-10T08:14:26;15.23;;;7.50;;
3379;SDS011;1703;51.964;7.642;2024-01-10T08:16:53;19.93;;;9.27;;
3379;SDS011;1703;51.964;7.642;2024-01-10T08:19:23;18.30;;;9.17;;
3379;SDS011;1703;51.964;7.642;2024-01-10T08:21:51;18.97;;;9.43;;
3379;SDS011;1703;51.964;7.642;2024-01-10T08:24:18;16.77;;;8.97;;
3379;SDS011;1703;51.964;7.642;2024-01-10T08:26:46;16.57;;;7.83;;
3379;SDS011;1703;51.964;7.642;2024-01-10T08:29:14;19.87;;;8.73;;
3379;SDS011;1703;51.964;7.642;2024-01-10T08:31:42;22.47;;;9.90;;
3379;SDS011;1703;51.964;7.642;2024-01-10T08:34:09;17.67;;;10.30;;
3379;SDS011;1703;51.964;7.642;2024-01-10T08:36:36;18.40;;;9.07;;
3379;SDS011;1703;51.964;7.642;2024-01-10T08:39:03;22.97;;;11.80;;
3379;SDS011;1703;51.964;7.642;2024-01-10T08:41:30;19.53;;;8.30;;
3379;SDS011;1703;51.964;7.642;2024-01-10T08:43:58;17.10;;;7.63;;
3379;SDS011;1703;51.964;7.642;2024-01-10T08:46:25;12.53;;;7.97;;
3379;SDS011;1703;51.964;7.642;2024-01-10T08:48:52;22.27;;;9.97;;
3379;SDS011;1703;51.964;7.642;2024-01-10T08:51:18;22.77;;;10.40;;
3379;SDS011;1703;51.964;7.642;2024-01-10T08:53:45;21.83;;;8.67;;
3379;SDS011;1703;51.964;7.642;2024-01-10T08:56:12;34.73;;;9.07;;
3379;SDS011;1703;51.964;7.642;2024-01-10T08:58:41;20.10;;;10.60;;
3379;SDS011;1703;51.964;7.642;2024-01-10T09:01:09;16.33;;;8.97;;
3379;SDS011;1703;51.964;7.642;2024-01-10T09:03:36;18.43;;;9.80;;
3379;SDS011;1703;51.964;7.642;2024-01-10T09:06:03;19.30;;;10.77;;
3379;SDS011;1703;51.964;7.642;2024-01-10T09:08:32;23.87;;;10.77;;
3379;SDS011;1703;51.964;7.642;2024-01-10T09:10:59;18.63;;;11.67;;
3379;SDS011;1703;51.964;7.642;2024-01-10T09:13:26;20.70;;;9.40;;
3379;SDS011;1703;51.964;7.642;2024-01-10T09:15:53;14.07;;;10.00;;
3379;SDS011;1703;51.964;7.642;2024-01-10T09:18:21;16.23;;;10.67;;
3379;SDS011;1703;51.964;7.642;2024-01-10T09:20:48;16.60;;;9.63;;
3379;SDS011;1703;51.964;7.642;2024-01-10T09:23:15;19.67;;;10.50;;
3379;SDS011;1703;51.964;7.642;2024-01-10T09:25:41;18.03;;;9.30;;
3379;SDS011;1703;51.964;7.642;2024-01-10T09:28:08;19.97;;;10.53;;
3379;SDS011;1703;51.964;7.642;2024-01-10T09:30:35;18.23;;;10.40;;
3379;SDS011;1703;51.964;7.642;2024-01-10T09:33:02;20.93;;;10.10;;
3379;SDS011;1703;51.964;7.642;2024-01-10T09:35:30;22.13;;;11.37;;
3379;SDS011;1703;51.964;7.642;2024-01-10T09:37:57;23.50;;;9.00;;
3379;SDS011;1703;51.964;7.642;2024-01-10T09:40:25;23.50;;;10.90;;
3379;SDS011;1703;51.964;7.642;2024-01-10T09:42:54;21.50;;;9.67;;
3379;SDS011;1703;51.964;7.642;2024-01-10T09:45:21;15.63;;;9.73;;
3379;SDS011;1703;51.964;7.642;2024-01-10T09:47:50;18.67;;;8.23;;
3379;SDS011;1703;51.964;7.642;2024-01-10T09:50:20;19.77;;;9.90;;
3379;SDS011;1703;51.964;7.642;2024-01-10T09:52:50;23.40;;;8.63;;
3379;SDS011;1703;51.964;7.642;2024-01-10T09:55:18;20.27;;;9.27;;
3379;SDS011;1703;51.964;7.642;2024-01-10T09:57:48;20.43;;;10.27;;
3379;SDS011;1703;51.964;7.642;2024-01-10T10:00:15;15.00;;;8.67;;
3379;SDS011;1703;51.964;7.642;2024-01-10T10:02:43;17.47;;;10.03;;
3379;SDS011;1703;51.964;7.642;2024-01-10T10:05:13;19.63;;;9.47;;
3379;SDS011;1703;51.964;7.642;2024-01-10T10:07:44;18.67;;;8.87;;
3379;SDS011;1703;51.964;7.642;2024-01-10T10:10:13;21.47;;;10.77;;
3379;SDS011;1703;51.964;7.642;2024-01-10T10:12:42;17.90;;;8.83;;
3379;SDS011;1703;51.964;7.642;2024-01-10T10:15:10;22.73;;;10.33;;
3379;SDS011;1703;51.964;7.642;2024-01-10T10:17:38;15.23;;;9.57;;
3379;SDS011;1703;51.964;7.642;2024-01-10T10:20:11;17.73;;;9.23;;
3379;SDS011;1703;51.964;7.642;2024-01-10T10:22:40;15.80;;;9.40;;
3379;SDS011;1703;51.964;7.642;2024-01-10T10:25:25;19.37;;;10.60;;
3379;SDS011;1703;51.964;7.642;2024-01-10T10:27:54;15.57;;;8.40;;
3379;SDS011;1703;51.964;7.642;2024-01-10T10:30:21;22.20;;;10.20;;
3379;SDS011;1703;51.964;7.642;2024-01-10T10:32:48;18.07;;;8.73;;
3379;SDS011;1703;51.964;7.642;2024-01-10T10:35:15;19.60;;;11.07;;
3379;SDS011;1703;51.964;7.642;2024-01-10T10:37:42;18.00;;;8.90;;
3379;SDS011;1703;51.964;7.642;2024-01-10T10:40:09;17.00;;;9.93;;
3379;SDS011;1703;51.964;7.642;2024-01-10T10:42:38;19.37;;;8.53;;
3379;SDS011;1703;51.964;7.642;2024-01-10T10:45:10;20.93;;;10.07;;
3379;SDS011;1703;51.964;7.642;2024-01-10T10:47:40;18.70;;;9.33;;
3379;SDS011;1703;51.964;7.642;2024-01-10T10:50:11;15.77;;;9.50;;
3379;SDS011;1703;51.964;7.642;2024-01-10T10:52:39;18.10;;;9.30;;
3379;SDS011;1703;51.964;7.642;2024-01-10T10:55:13;14.30;;;8.20;;
3379;SDS011;1703;51.964;7.642;2024-01-10T10:57:43;13.03;;;8.77;;
3379;SDS011;1703;51.964;7.642;2024-01-10T11:00:12;15.43;;;9.30;;
3379;SDS011;1703;51.964;7.642;2024-01-10T11:02:41;29.93;;;10.13;;
3379;SDS011;1703;51.964;7.642;2024-01-10T11:05:09;18.40;;;9.50;;
3379;SDS011;1703;51.964;7.642;2024-01-10T11:07:36;17.27;;;8.97;;
3379;SDS011;1703;51.964;7.642;2024-01-10T11:10:04;16.30;;;7.77;;
3379;SDS011;1703;51.964;7.642;2024-01-10T11:12:40;21.10;;;9.00;;
3379;SDS011;1703;51.964;7.642;2024-01-10T11:15:24;25.03;;;8.87;;
3379;SDS011;1703;51.964;7.642;2024-01-10T11:18:16;16.40;;;8.80;;
3379;SDS011;1703;51.964;7.642;2024-01-10T11:21:03;14.90;;;9.77;;
3379;SDS011;1703;51.964;7.642;2024-01-10T11:23:42;17.57;;;8.17;;
3379;SDS011;1703;51.964;7.642;2024-01-10T11:26:12;20.50;;;10.50;;
3379;SDS011;1703;51.964;7.642;2024-01-10T11:28:41;15.70;;;8.03;;
3379;SDS011;1703;51.964;7.642;2024-01-10T11:31:09;16.40;;;10.50;;
3379;SDS011;1703;51.964;7.642;2024-01-10T11:33:36;19.13;;;10.50;;
3379;SDS011;1703;51.964;7.642;2024-01-10T11:38:53;19.50;;;8.83;;
3379;SDS011;1703;51.964;7.642;2024-01-10T11:41:24;22.67;;;9.40;;
3379;SDS011;1703;51.964;7.642;2024-01-10T11:46:53;15.40;;;8.20;;
3379;SDS011;1703;51.964;7.642;2024-01-10T11:49:21;25.00;;;9.90;;
3379;SDS011;1703;51.964;7.642;2024-01-10T11:51:50;15.90;;;8.23;;
3379;SDS011;1703;51.964;7.642;2024-01-10T11:54:37;15.20;;;8.23;;
3379;SDS011;1703;51.964;7.642;2024-01-10T11:57:10;24.50;;;9.97;;
3379;SDS011;1703;51.964;7.642;2024-01-10T11:59:39;15.83;;;7.87;;
3379;SDS011;1703;51.964;7.642;2024-01-10T12:02:09;15.20;;;8.50;;
3379;SDS011;1703;51.964;7.642;2024-01-10T12:04:37;21.80;;;8.60;;
3379;SDS011;1703;51.964;7.642;2024-01-10T12:07:05;25.30;;;8.90;;
3379;SDS011;1703;51.964;7.642;2024-01-10T12:09:33;17.53;;;8.27;;
3379;SDS011;1703;51.964;7.642;2024-01-10T12:12:00;17.60;;;8.83;;
3379;SDS011;1703;51.964;7.642;2024-01-10T12:14:27;19.60;;;9.30;;
3379;SDS011;1703;51.964;7.642;2024-01-10T12:16:56;16.27;;;8.10;;
3379;SDS011;1703;51.964;7.642;2024-01-10T12:19:23;19.23;;;8.60;;
3379;SDS011;1703;51.964;7.642;2024-01-10T12:21:49;20.07;;;9.33;;
3379;SDS011;1703;51.964;7.642;2024-01-10T12:24:17;15.10;;;8.97;;
3379;SDS011;1703;51.964;7.642;2024-01-10T12:26:44;17.97;;;9.30;;
3379;SDS011;1703;51.964;7.642;2024-01-10T12:29:10;15.57;;;9.23;;
3379;SDS011;1703;51.964;7.642;2024-01-10T12:31:37;15.23;;;8.90;;
3379;SDS011;1703;51.964;7.642;2024-01-10T12:34:07;16.00;;;9.17;;
3379;SDS011;1703;51.964;7.642;2024-01-10T12:36:35;24.47;;;9.37;;
3379;SDS011;1703;51.964;7.642;2024-01-10T12:39:02;24.23;;;9.90;;
3379;SDS011;1703;51.964;7.642;2024-01-10T12:41:31;17.00;;;9.03;;
3379;SDS011;1703;51.964;7.642;2024-01-10T12:43:59;16.80;;;7.30;;
3379;SDS011;1703;51.964;7.642;2024-01-10T12:46:28;17.93;;;10.30;;
3379;SDS011;1703;51.964;7.642;2024-01-10T12:48:58;21.20;;;10.17;;
3379;SDS011;1703;51.964;7.642;2024-01-10T12:51:28;17.00;;;9.40;;
3379;SDS011;1703;51.964;7.642;2024-01-10T12:53:56;25.17;;;9.40;;
3379;SDS011;1703;51.964;7.642;2024-01-10T12:56:25;20.17;;;9.77;;
3379;SDS011;1703;51.964;7.642;2024-01-10T12:58:52;16.00;;;8.70;;
3379;SDS011;1703;51.964;7.642;2024-01-10T13:01:19;19.43;;;8.93;;
3379;SDS011;1703;51.964;7.642;2024-01-10T13:03:46;15.23;;;9.53;;
3379;SDS011;1703;51.964;7.642;2024-01-10T13:06:14;23.20;;;11.50;;
3379;SDS011;1703;51.964;7.642;2024-01-10T13:08:43;24.37;;;10.20;;
3379;SDS011;1703;51.964;7.642;2024-01-10T13:11:10;18.53;;;11.30;;
3379;SDS011;1703;51.964;7.642;2024-01-10T13:13:39;23.43;;;10.80;;
3379;SDS011;1703;51.964;7.642;2024-01-10T13:16:06;16.30;;;9.63;;
3379;SDS011;1703;51.964;7.642;2024-01-10T13:18:35;19.17;;;9.97;;
3379;SDS011;1703;51.964;7.642;2024-01-10T13:21:03;26.77;;;11.87;;
3379;SDS011;1703;51.964;7.642;2024-01-10T13:23:30;21.53;;;11.93;;
3379;SDS011;1703;51.964;7.642;2024-01-10T13:25:59;27.70;;;10.73;;
3379;SDS011;1703;51.964;7.642;2024-01-10T13:28:26;21.40;;;11.10;;
3379;SDS011;1703;51.964;7.642;2024-01-10T13:30:54;18.60;;;10.87;;
3379;SDS011;1703;51.964;7.642;2024-01-10T13:33:21;22.43;;;12.63;;
3379;SDS011;1703;51.964;7.642;2024-01-10T13:35:48;20.77;;;9.77;;
3379;SDS011;1703;51.964;7.642;2024-01-10T13:38:15;21.27;;;10.47;;
3379;SDS011;1703;51.964;7.642;2024-01-10T13:40:43;19.63;;;11.07;;
3379;SDS011;1703;51.964;7.642;2024-01-10T13:43:11;25.53;;;10.50;;
3379;SDS011;1703;51.964;7.642;2024-01-10T13:45:38;20.50;;;9.73;;
3379;SDS011;1703;51.964;7.642;2024-01-10T13:48:05;21.80;;;10.33;;
3379;SDS011;1703;51.964;7.642;2024-01-10T13:50:32;17.20;;;9.77;;
3379;SDS011;1703;51.964;7.642;2024-01-10T13:53:00;17.93;;;11.23;;
3379;SDS011;1703;51.964;7.642;2024-01-10T13:55:27;21.17;;;9.97;;
3379;SDS011;1703;51.964;7.642;2024-01-10T13:57:57;25.30;;;12.43;;
3379;SDS011;1703;51.964;7.642;2024-01-10T14:00:26;20.50;;;11.93;;
3379;SDS011;1703;51.964;7.642;2024-01-10T14:02:53;29.50;;;12.07;;
3379;SDS011;1703;51.964;7.642;2024-01-10T14:05:24;26.57;;;10.47;;
3379;SDS011;1703;51.964;7.642;2024-01-10T14:07:52;19.70;;;10.80;;
3379;SDS011;1703;51.964;7.642;2024-01-10T14:10:18;22.37;;;12.30;;
3379;SDS011;1703;51.964;7.642;2024-01-10T14:12:45;19.97;;;11.30;;
3379;SDS011;1703;51.964;7.642;2024-01-10T14:15:12;28.43;;;12.50;;
3379;SDS011;1703;51.964;7.642;2024-01-10T14:17:41;19.03;;;10.40;;
3379;SDS011;1703;51.964;7.642;2024-01-10T14:20:08;16.80;;;10.10;;
3379;SDS011;1703;51.964;7.642;2024-01-10T14:22:35;30.00;;;11.50;;
3379;SDS011;1703;51.964;7.642;2024-01-10T14:25:03;21.73;;;12.50;;
3379;SDS011;1703;51.964;7.642;2024-01-10T14:27:31;34.90;;;12.00;;
3379;SDS011;1703;51.964;7.642;2024-01-10T14:29:58;22.33;;;12.17;;
3379;SDS011;1703;51.964;7.642;2024-01-10T14:32:28;21.67;;;10.87;;
3379;SDS011;1703;51.964;7.642;2024-01-10T14:34:56;24.80;;;12.20;;
3379;SDS011;1703;51.964;7.642;2024-01-10T14:37:23;26.53;;;9.60;;
3379;SDS011;1703;51.964;7.642;2024-01-10T14:39:50;28.47;;;12.57;;
3379;SDS011;1703;51.964;7.642;2024-01-10T14:42:16;21.23;;;11.80;;
3379;SDS011;1703;51.964;7.642;2024-01-10T14:44:43;21.00;;;12.50;;
3379;SDS011;1703;51.964;7.642;2024-01-10T14:47:11;22.10;;;11.77;;
3379;SDS011;1703;51.964;7.642;2024-01-10T14:49:38;27.70;;;11.90;;
3379;SDS011;1703;51.964;7.642;2024-01-10T14:52:06;22.97;;;11.97;;
3379;SDS011;1703;51.964;7.642;2024-01-10T14:54:33;20.00;;;10.70;;
3379;SDS011;1703;51.964;7.642;2024-01-10T14:57:00;27.10;;;12.47;;
3379;SDS011;1703;51.964;7.642;2024-01-10T14:59:26;25.10;;;12.03;;
3379;SDS011;1703;51.964;7.642;2024-01-10T15:01:54;29.27;;;13.87;;
3379;SDS011;1703;51.964;7.642;2024-01-10T15:04:21;21.43;;;11.27;;
3379;SDS011;1703;51.964;7.642;2024-01-10T15:06:48;24.97;;;11.73;;
3379;SDS011;1703;51.964;7.642;2024-01-10T15:09:16;25.50;;;12.77;;
3379;SDS011;1703;51.964;7.642;2024-01-10T15:11:44;23.53;;;11.70;;